sensor_id;sensor_type;location;lat;lon;timestamp;temperature;humidity
16054;DHT22;8131;51.202;7.220;2022-07-11T08:11:26;17.30;99.90
16054;DHT22;8131;51.202;7.220;2022-07-11T08:13:52;17.00;99.90
16054;DHT22;8131;51.202;7.220;2022-07-11T08:16:17;17.10;99.90
16054;DHT22;8131;51.202;7.220;2022-07-11T08:18:43;17.10;99.90
16054;DHT22;8131;51.202;7.220;2022-07-11T08:21:09;17.10;99.90
16054;DHT22;8131;51.202;7.220;2022-07-11T08:23:35;17.10;99.90
16054;DHT22;8131;51.202;7.220;2022-07-11T08:26:00;17.00;99.90
16054;DHT22;8131;51.202;7.220;2022-07-11T08:28:26;16.90;99.90
16054;DHT22;8131;51.202;7.220;2022-07-11T08:30:52;16.80;99.90
16054;DHT22;8131;51.202;7.220;2022-07-11T08:33:18;16.70;99.90
16054;DHT22;8131;51.202;7.220;2022-07-11T08:35:43;16.70;99.90
16054;DHT22;8131;51.202;7.220;2022-07-11T08:38:09;16.80;99.90
16054;DHT22;8131;51.202;7.220;2022-07-11T08:40:35;16.80;99.90
16054;DHT22;8131;51.202;7.220;2022-07-11T08:43:02;16.90;99.90
16054;DHT22;8131;51.202;7.220;2022-07-11T08:45:31;16.90;99.90
16054;DHT22;8131;51.202;7.220;2022-07-11T08:48:01;16.90;99.90
16054;DHT22;8131;51.202;7.220;2022-07-11T08:50:34;17.00;99.90
16054;DHT22;8131;51.202;7.220;2022-07-11T08:53:06;17.00;99.90
16054;DHT22;8131;51.202;7.220;2022-07-11T08:55:38;17.10;99.90
16054;DHT22;8131;51.202;7.220;2022-07-11T08:58:09;17.10;99.90
16054;DHT22;8131;51.202;7.220;2022-07-11T09:00:37;17.10;99.90
16054;DHT22;8131;51.202;7.220;2022-07-11T09:03:13;17.20;99.90
16054;DHT22;8131;51.202;7.220;2022-07-11T09:05:47;17.30;99.90
16054;DHT22;8131;51.202;7.220;2022-07-11T09:08:20;17.30;99.90
16054;DHT22;8131;51.202;7.220;2022-07-11T09:10:53;17.30;99.90
16054;DHT22;8131;51.202;7.220;2022-07-11T09:13:30;17.30;99.90
16054;DHT22;8131;51.202;7.220;2022-07-11T09:16:06;17.50;99.90
16054;DHT22;8131;51.202;7.220;2022-07-11T09:18:40;17.70;99.90
16054;DHT22;8131;51.202;7.220;2022-07-11T09:21:13;18.00;99.90
16054;DHT22;8131;51.202;7.220;2022-07-11T09:24:02;18.00;99.90
16054;DHT22;8131;51.202;7.220;2022-07-11T09:26:52;18.20;99.90
16054;DHT22;8131;51.202;7.220;2022-07-11T09:29:25;18.30;99.90
16054;DHT22;8131;51.202;7.220;2022-07-11T09:31:57;18.50;99.90
16054;DHT22;8131;51.202;7.220;2022-07-11T09:34:27;18.70;99.90
16054;DHT22;8131;51.202;7.220;2022-07-11T09:36:57;18.70;99.90
16054;DHT22;8131;51.202;7.220;2022-07-11T09:39:27;18.50;99.90
16054;DHT22;8131;51.202;7.220;2022-07-11T09:41:55;18.50;99.90
16054;DHT22;8131;51.202;7.220;2022-07-11T09:44:30;18.50;99.90
16054;DHT22;8131;51.202;7.220;2022-07-11T09:47:09;18.50;99.90
16054;DHT22;8131;51.202;7.220;2022-07-11T09:49:39;18.50;99.90
16054;DHT22;8131;51.202;7.220;2022-07-11T09:52:17;18.40;99.90
16054;DHT22;8131;51.202;7.220;2022-07-11T09:54:57;18.40;99.90
16054;DHT22;8131;51.202;7.220;2022-07-11T09:57:38;18.40;99.90
16054;DHT22;8131;51.202;7.220;2022-07-11T10:00:17;18.40;99.90
16054;DHT22;8131;51.202;7.220;2022-07-11T10:02:51;18.30;99.90
16054;DHT22;8131;51.202;7.220;2022-07-11T10:05:19;18.10;99.90
16054;DHT22;8131;51.202;7.220;2022-07-11T10:07:50;18.00;99.90
16054;DHT22;8131;51.202;7.220;2022-07-11T10:10:21;17.80;99.90
16054;DHT22;8131;51.202;7.220;2022-07-11T10:12:55;17.70;99.90
16054;DHT22;8131;51.202;7.220;2022-07-11T10:15:31;17.70;99.90
16054;DHT22;8131;51.202;7.220;2022-07-11T10:18:31;17.70;99.90
16054;DHT22;8131;51.202;7.220;2022-07-11T10:21:59;17.70;99.90
16054;DHT22;8131;51.202;7.220;2022-07-11T10:24:18;17.60;99.90
16054;DHT22;8131;51.202;7.220;2022-07-11T10:29:54;17.50;99.90
16054;DHT22;8131;51.202;7.220;2022-07-11T10:32:24;17.40;99.90
16054;DHT22;8131;51.202;7.220;2022-07-11T10:35:15;17.40;99.90
16054;DHT22;8131;51.202;7.220;2022-07-11T10:37:54;17.40;99.90
16054;DHT22;8131;51.202;7.220;2022-07-11T10:40:45;17.60;99.90
16054;DHT22;8131;51.202;7.220;2022-07-11T10:46:09;18.00;99.90
16054;DHT22;8131;51.202;7.220;2022-07-11T10:49:24;18.10;99.90
16054;DHT22;8131;51.202;7.220;2022-07-11T10:51:57;18.10;99.90
16054;DHT22;8131;51.202;7.220;2022-07-11T11:00:26;17.70;99.90
16054;DHT22;8131;51.202;7.220;2022-07-11T11:03:23;17.60;99.90
16054;DHT22;8131;51.202;7.220;2022-07-11T11:05:57;17.50;99.90
16054;DHT22;8131;51.202;7.220;2022-07-11T11:16:43;18.10;99.90
16054;DHT22;8131;51.202;7.220;2022-07-11T11:22:20;18.60;99.90
16054;DHT22;8131;51.202;7.220;2022-07-11T11:24:51;18.60;99.90
16054;DHT22;8131;51.202;7.220;2022-07-11T11:27:22;18.80;99.90
16054;DHT22;8131;51.202;7.220;2022-07-11T11:29:49;19.00;99.90
16054;DHT22;8131;51.202;7.220;2022-07-11T11:32:16;19.10;99.90
16054;DHT22;8131;51.202;7.220;2022-07-11T11:34:42;19.30;99.90
16054;DHT22;8131;51.202;7.220;2022-07-11T11:37:08;19.40;99.90
16054;DHT22;8131;51.202;7.220;2022-07-11T11:39:37;19.40;99.90
16054;DHT22;8131;51.202;7.220;2022-07-11T11:44:33;19.30;99.90
16054;DHT22;8131;51.202;7.220;2022-07-11T11:46:59;19.10;99.90
16054;DHT22;8131;51.202;7.220;2022-07-11T11:49:25;19.00;99.90
16054;DHT22;8131;51.202;7.220;2022-07-11T11:51:54;18.90;99.90
16054;DHT22;8131;51.202;7.220;2022-07-11T11:54:22;18.70;99.90
16054;DHT22;8131;51.202;7.220;2022-07-11T11:56:48;18.60;99.90
16054;DHT22;8131;51.202;7.220;2022-07-11T11:59:14;18.50;99.90
16054;DHT22;8131;51.202;7.220;2022-07-11T12:01:43;18.60;99.90
16054;DHT22;8131;51.202;7.220;2022-07-11T12:04:16;18.70;99.90
16054;DHT22;8131;51.202;7.220;2022-07-11T12:06:46;18.80;99.90
16054;DHT22;8131;51.202;7.220;2022-07-11T12:09:14;19.10;99.90
16054;DHT22;8131;51.202;7.220;2022-07-11T12:11:49;19.20;99.90
16054;DHT22;8131;51.202;7.220;2022-07-11T12:14:33;19.20;99.90
16054;DHT22;8131;51.202;7.220;2022-07-11T12:16:59;19.30;99.90
16054;DHT22;8131;51.202;7.220;2022-07-11T12:19:25;19.10;99.90
16054;DHT22;8131;51.202;7.220;2022-07-11T12:21:53;19.20;99.90
16054;DHT22;8131;51.202;7.220;2022-07-11T12:24:24;19.30;99.90
16054;DHT22;8131;51.202;7.220;2022-07-11T12:26:52;19.50;99.90
16054;DHT22;8131;51.202;7.220;2022-07-11T12:29:20;19.60;99.90
16054;DHT22;8131;51.202;7.220;2022-07-11T12:34:17;20.00;99.90
16054;DHT22;8131;51.202;7.220;2022-07-11T12:36:43;20.10;99.90
16054;DHT22;8131;51.202;7.220;2022-07-11T12:39:27;20.40;99.90
16054;DHT22;8131;51.202;7.220;2022-07-11T12:41:55;20.30;99.90
16054;DHT22;8131;51.202;7.220;2022-07-11T12:44:29;20.40;99.90
16054;DHT22;8131;51.202;7.220;2022-07-11T12:47:16;20.30;99.90
16054;DHT22;8131;51.202;7.220;2022-07-11T12:49:43;20.60;99.90
16054;DHT22;8131;51.202;7.220;2022-07-11T12:52:13;20.70;99.90
16054;DHT22;8131;51.202;7.220;2022-07-11T12:54:41;20.70;99.90
16054;DHT22;8131;51.202;7.220;2022-07-11T12:57:08;20.70;99.90
16054;DHT22;8131;51.202;7.220;2022-07-11T12:59:34;20.90;99.90
16054;DHT22;8131;51.202;7.220;2022-07-11T13:02:03;20.90;99.90
16054;DHT22;8131;51.202;7.220;2022-07-11T13:07:24;21.10;99.90
16054;DHT22;8131;51.202;7.220;2022-07-11T13:10:11;21.20;99.90
16054;DHT22;8131;51.202;7.220;2022-07-11T13:12:38;21.30;99.90
16054;DHT22;8131;51.202;7.220;2022-07-11T13:15:06;21.20;99.90
16054;DHT22;8131;51.202;7.220;2022-07-11T13:20:22;21.10;99.90
16054;DHT22;8131;51.202;7.220;2022-07-11T13:22:49;21.00;99.90
16054;DHT22;8131;51.202;7.220;2022-07-11T13:25:17;21.00;99.90
16054;DHT22;8131;51.202;7.220;2022-07-11T13:27:44;21.00;99.90
16054;DHT22;8131;51.202;7.220;2022-07-11T13:30:13;21.10;99.90
16054;DHT22;8131;51.202;7.220;2022-07-11T13:32:49;21.20;99.90
16054;DHT22;8131;51.202;7.220;2022-07-11T13:35:21;21.10;99.90
16054;DHT22;8131;51.202;7.220;2022-07-11T13:37:49;21.20;99.90
16054;DHT22;8131;51.202;7.220;2022-07-11T13:40:22;21.10;99.90
16054;DHT22;8131;51.202;7.220;2022-07-11T13:42:49;20.80;99.90
16054;DHT22;8131;51.202;7.220;2022-07-11T13:45:16;20.60;99.90
16054;DHT22;8131;51.202;7.220;2022-07-11T13:47:42;20.40;99.90
16054;DHT22;8131;51.202;7.220;2022-07-11T13:50:09;20.20;99.90
16054;DHT22;8131;51.202;7.220;2022-07-11T13:55:56;20.40;99.90
16054;DHT22;8131;51.202;7.220;2022-07-11T13:58:24;20.50;99.90
16054;DHT22;8131;51.202;7.220;2022-07-11T14:00:51;20.50;99.90
16054;DHT22;8131;51.202;7.220;2022-07-11T14:03:17;20.40;99.90
16054;DHT22;8131;51.202;7.220;2022-07-11T14:05:43;20.50;99.90
16054;DHT22;8131;51.202;7.220;2022-07-11T14:08:09;20.40;99.90
16054;DHT22;8131;51.202;7.220;2022-07-11T14:10:35;20.30;99.90
16054;DHT22;8131;51.202;7.220;2022-07-11T14:13:01;20.20;99.90
16054;DHT22;8131;51.202;7.220;2022-07-11T14:15:27;20.20;99.90
16054;DHT22;8131;51.202;7.220;2022-07-11T14:17:53;20.30;99.90
16054;DHT22;8131;51.202;7.220;2022-07-11T14:20:18;20.40;99.90
16054;DHT22;8131;51.202;7.220;2022-07-11T14:22:44;20.40;99.90
16054;DHT22;8131;51.202;7.220;2022-07-11T14:25:09;20.50;99.90
16054;DHT22;8131;51.202;7.220;2022-07-11T14:27:35;20.60;99.90
16054;DHT22;8131;51.202;7.220;2022-07-11T14:30:06;20.70;99.90
16054;DHT22;8131;51.202;7.220;2022-07-11T14:32:33;20.70;99.90
16054;DHT22;8131;51.202;7.220;2022-07-11T14:34:59;20.90;99.90
16054;DHT22;8131;51.202;7.220;2022-07-11T14:37:25;20.90;99.90
16054;DHT22;8131;51.202;7.220;2022-07-11T14:39:51;20.80;99.90
16054;DHT22;8131;51.202;7.220;2022-07-11T14:42:17;20.70;99.90
16054;DHT22;8131;51.202;7.220;2022-07-11T14:44:43;20.40;99.90
16054;DHT22;8131;51.202;7.220;2022-07-11T14:47:08;20.50;99.90
16054;DHT22;8131;51.202;7.220;2022-07-11T14:49:34;20.60;99.90
16054;DHT22;8131;51.202;7.220;2022-07-11T14:52:00;20.70;99.90
16054;DHT22;8131;51.202;7.220;2022-07-11T14:54:26;20.90;99.90
16054;DHT22;8131;51.202;7.220;2022-07-11T14:56:52;21.10;99.90
16054;DHT22;8131;51.202;7.220;2022-07-11T14:59:17;21.30;99.90
16054;DHT22;8131;51.202;7.220;2022-07-11T15:01:43;21.20;99.90
16054;DHT22;8131;51.202;7.220;2022-07-11T15:04:09;21.20;99.90
16054;DHT22;8131;51.202;7.220;2022-07-11T15:06:35;21.20;99.90
16054;DHT22;8131;51.202;7.220;2022-07-11T15:09:19;21.10;99.90
16054;DHT22;8131;51.202;7.220;2022-07-11T15:12:04;21.60;99.90
16054;DHT22;8131;51.202;7.220;2022-07-11T15:14:45;22.10;99.90
16054;DHT22;8131;51.202;7.220;2022-07-11T15:17:12;22.60;99.90
16054;DHT22;8131;51.202;7.220;2022-07-11T15:19:39;22.70;99.90
16054;DHT22;8131;51.202;7.220;2022-07-11T15:22:07;22.60;99.90
16054;DHT22;8131;51.202;7.220;2022-07-11T15:24:36;22.40;99.90
16054;DHT22;8131;51.202;7.220;2022-07-11T15:27:01;22.40;99.90
16054;DHT22;8131;51.202;7.220;2022-07-11T15:29:27;22.70;99.90
16054;DHT22;8131;51.202;7.220;2022-07-11T15:31:53;23.20;99.90
16054;DHT22;8131;51.202;7.220;2022-07-11T15:34:19;23.60;99.90
16054;DHT22;8131;51.202;7.220;2022-07-11T15:36:46;23.80;99.90
16054;DHT22;8131;51.202;7.220;2022-07-11T15:39:11;24.10;99.90
16054;DHT22;8131;51.202;7.220;2022-07-11T15:41:37;24.10;99.90
16054;DHT22;8131;51.202;7.220;2022-07-11T15:44:06;24.30;99.90
16054;DHT22;8131;51.202;7.220;2022-07-11T15:46:33;24.30;99.90
16054;DHT22;8131;51.202;7.220;2022-07-11T15:48:59;24.20;99.90
16054;DHT22;8131;51.202;7.220;2022-07-11T15:51:26;24.40;99.90
16054;DHT22;8131;51.202;7.220;2022-07-11T15:53:51;24.80;99.90
16054;DHT22;8131;51.202;7.220;2022-07-11T15:56:17;24.50;99.90
16054;DHT22;8131;51.202;7.220;2022-07-11T15:58:43;24.20;99.90
16054;DHT22;8131;51.202;7.220;2022-07-11T16:01:08;23.60;99.90
16054;DHT22;8131;51.202;7.220;2022-07-11T16:03:34;23.10;99.90
16054;DHT22;8131;51.202;7.220;2022-07-11T16:06:00;22.50;99.90
16054;DHT22;8131;51.202;7.220;2022-07-11T16:08:26;22.40;99.90
16054;DHT22;8131;51.202;7.220;2022-07-11T16:10:51;22.30;99.90
16054;DHT22;8131;51.202;7.220;2022-07-11T16:13:17;22.40;99.90
16054;DHT22;8131;51.202;7.220;2022-07-11T16:15:45;22.60;99.90
16054;DHT22;8131;51.202;7.220;2022-07-11T16:18:13;22.70;99.90
16054;DHT22;8131;51.202;7.220;2022-07-11T16:20:40;23.00;99.90
16054;DHT22;8131;51.202;7.220;2022-07-11T16:23:05;23.30;99.90
16054;DHT22;8131;51.202;7.220;2022-07-11T16:25:31;23.20;99.90
16054;DHT22;8131;51.202;7.220;2022-07-11T16:27:57;23.00;99.90
16054;DHT22;8131;51.202;7.220;2022-07-11T16:30:23;22.90;99.90
16054;DHT22;8131;51.202;7.220;2022-07-11T16:32:58;22.80;99.90
16054;DHT22;8131;51.202;7.220;2022-07-11T16:35:24;22.70;99.90
16054;DHT22;8131;51.202;7.220;2022-07-11T16:37:50;22.70;99.90
16054;DHT22;8131;51.202;7.220;2022-07-11T16:40:16;22.70;99.90
16054;DHT22;8131;51.202;7.220;2022-07-11T16:43:00;22.70;99.90
16054;DHT22;8131;51.202;7.220;2022-07-11T16:45:44;22.70;99.90
16054;DHT22;8131;51.202;7.220;2022-07-11T16:48:09;22.60;99.90
16054;DHT22;8131;51.202;7.220;2022-07-11T16:50:35;22.60;99.90
16054;DHT22;8131;51.202;7.220;2022-07-11T16:53:01;22.50;99.90
16054;DHT22;8131;51.202;7.220;2022-07-11T16:55:27;22.40;99.90
16054;DHT22;8131;51.202;7.220;2022-07-11T16:57:52;22.60;99.90
16054;DHT22;8131;51.202;7.220;2022-07-11T17:00:19;22.80;99.90
16054;DHT22;8131;51.202;7.220;2022-07-11T17:02:44;22.70;99.90
16054;DHT22;8131;51.202;7.220;2022-07-11T17:05:10;22.80;99.90
16054;DHT22;8131;51.202;7.220;2022-07-11T17:07:35;22.90;99.90
16054;DHT22;8131;51.202;7.220;2022-07-11T17:10:02;22.90;99.90
16054;DHT22;8131;51.202;7.220;2022-07-11T17:12:27;23.10;99.90
16054;DHT22;8131;51.202;7.220;2022-07-11T17:14:53;23.30;99.90
16054;DHT22;8131;51.202;7.220;2022-07-11T17:17:19;23.50;99.90
16054;DHT22;8131;51.202;7.220;2022-07-11T17:19:45;23.60;99.90
16054;DHT22;8131;51.202;7.220;2022-07-11T17:22:10;23.70;99.90
16054;DHT22;8131;51.202;7.220;2022-07-11T17:24:36;24.10;99.90
16054;DHT22;8131;51.202;7.220;2022-07-11T17:27:03;24.70;99.90
16054;DHT22;8131;51.202;7.220;2022-07-11T17:29:31;24.70;99.90
16054;DHT22;8131;51.202;7.220;2022-07-11T17:31:57;24.80;99.90
16054;DHT22;8131;51.202;7.220;2022-07-11T17:34:22;25.10;99.90
16054;DHT22;8131;51.202;7.220;2022-07-11T17:36:48;25.40;99.90
16054;DHT22;8131;51.202;7.220;2022-07-11T17:39:13;25.80;99.90
16054;DHT22;8131;51.202;7.220;2022-07-11T17:41:40;25.80;99.90
16054;DHT22;8131;51.202;7.220;2022-07-11T17:44:08;25.20;99.90
16054;DHT22;8131;51.202;7.220;2022-07-11T17:46:34;24.70;99.90
16054;DHT22;8131;51.202;7.220;2022-07-11T17:49:00;24.00;99.90
16054;DHT22;8131;51.202;7.220;2022-07-11T17:51:26;23.50;99.90
16054;DHT22;8131;51.202;7.220;2022-07-11T17:53:52;23.10;99.90
16054;DHT22;8131;51.202;7.220;2022-07-11T17:56:18;22.70;99.90
16054;DHT22;8131;51.202;7.220;2022-07-11T17:58:44;22.40;99.90
16054;DHT22;8131;51.202;7.220;2022-07-11T18:01:11;22.10;99.90
16054;DHT22;8131;51.202;7.220;2022-07-11T18:03:37;21.80;99.90
16054;DHT22;8131;51.202;7.220;2022-07-11T18:06:03;21.70;99.90
16054;DHT22;8131;51.202;7.220;2022-07-11T18:08:28;21.40;99.90
16054;DHT22;8131;51.202;7.220;2022-07-11T18:10:54;21.30;99.90
16054;DHT22;8131;51.202;7.220;2022-07-11T18:13:21;21.20;99.90
16054;DHT22;8131;51.202;7.220;2022-07-11T18:15:46;21.10;99.90
16054;DHT22;8131;51.202;7.220;2022-07-11T18:18:12;21.10;99.90
16054;DHT22;8131;51.202;7.220;2022-07-11T18:20:38;21.00;99.90
16054;DHT22;8131;51.202;7.220;2022-07-11T18:23:05;20.90;99.90
16054;DHT22;8131;51.202;7.220;2022-07-11T18:25:30;20.90;99.90
16054;DHT22;8131;51.202;7.220;2022-07-11T18:27:56;20.90;99.90
16054;DHT22;8131;51.202;7.220;2022-07-11T18:30:22;21.00;99.90
16054;DHT22;8131;51.202;7.220;2022-07-11T18:32:47;21.00;99.90
16054;DHT22;8131;51.202;7.220;2022-07-11T18:35:13;21.10;99.90
16054;DHT22;8131;51.202;7.220;2022-07-11T18:37:38;21.20;99.90
16054;DHT22;8131;51.202;7.220;2022-07-11T18:40:05;21.20;99.90
16054;DHT22;8131;51.202;7.220;2022-07-11T18:42:49;21.20;99.90
16054;DHT22;8131;51.202;7.220;2022-07-11T18:45:15;21.20;99.90
16054;DHT22;8131;51.202;7.220;2022-07-11T18:47:40;21.40;99.90
16054;DHT22;8131;51.202;7.220;2022-07-11T18:50:07;21.40;99.90
16054;DHT22;8131;51.202;7.220;2022-07-11T18:52:33;21.50;99.90
16054;DHT22;8131;51.202;7.220;2022-07-11T18:54:58;21.50;99.90
16054;DHT22;8131;51.202;7.220;2022-07-11T18:57:26;21.30;99.90
16054;DHT22;8131;51.202;7.220;2022-07-11T18:59:51;21.30;99.90
16054;DHT22;8131;51.202;7.220;2022-07-11T19:02:17;21.30;99.90
16054;DHT22;8131;51.202;7.220;2022-07-11T19:04:43;21.00;99.90
16054;DHT22;8131;51.202;7.220;2022-07-11T19:07:08;20.80;99.90
16054;DHT22;8131;51.202;7.220;2022-07-11T19:09:34;20.40;99.90
